Time,TemperatureF,DewpointF,PressureIn,WindDirection,WindDirectionDegrees,WindSpeedMPH,WindSpeedGustMPH,Humidity,HourlyPrecipIn,Conditions,Clouds,dailyrainin,SoftwareType,DateUTC
2013-09-23 00:03:00,56.5,46.9,29.87,ESE,113,1.6,1.6,70,0.00,,,0.00,WUHU216HW,2013-09-23 05:03:00,
2013-09-23 00:28:00,56.0,47.4,29.88,SW,225,0.9,0.9,73,0.00,,,0.00,WUHU216HW,2013-09-23 05:28:00,
2013-09-23 00:33:00,56.0,47.4,29.88,SW,225,0.9,0.9,73,0.00,,,0.00,WUHU216HW,2013-09-23 05:33:00,
2013-09-23 00:58:00,55.3,47.1,29.88,SSE,158,0.9,0.9,74,0.00,,,0.00,WUHU216HW,2013-09-23 05:58:00,
2013-09-23 01:03:00,55.3,47.1,29.88,SSE,158,0.9,0.9,74,0.00,,,0.00,WUHU216HW,2013-09-23 06:03:00,
2013-09-23 01:28:00,54.5,47.1,29.88,SE,135,3.4,3.4,76,0.00,,,0.00,WUHU216HW,2013-09-23 06:28:00,
2013-09-23 01:33:00,54.5,47.1,29.88,SE,135,3.4,3.4,76,0.00,,,0.00,WUHU216HW,2013-09-23 06:33:00,
2013-09-23 01:58:00,54.0,46.6,29.88,East,90,2.2,2.2,76,0.00,,,0.00,WUHU216HW,2013-09-23 06:58:00,
2013-09-23 02:03:00,54.0,46.6,29.88,East,90,2.2,2.2,76,0.00,,,0.00,WUHU216HW,2013-09-23 07:03:00,
2013-09-23 02:28:00,53.3,46.3,29.88,ESE,113,1.1,1.1,77,0.00,,,0.00,WUHU216HW,2013-09-23 07:28:00,
2013-09-23 02:33:00,53.3,46.3,29.88,ESE,113,1.1,1.1,77,0.00,,,0.00,WUHU216HW,2013-09-23 07:33:00,
2013-09-23 02:58:00,52.9,46.3,29.88,SE,135,2.5,2.5,78,0.00,,,0.00,WUHU216HW,2013-09-23 07:58:00,
2013-09-23 03:03:00,52.9,46.3,29.88,SE,135,2.5,2.5,78,0.00,,,0.00,WUHU216HW,2013-09-23 08:03:00,
2013-09-23 03:28:00,52.2,45.5,29.88,ESE,113,1.3,1.3,78,0.00,,,0.00,WUHU216HW,2013-09-23 08:28:00,
2013-09-23 03:33:00,52.2,45.5,29.88,ESE,113,1.3,1.3,78,0.00,,,0.00,WUHU216HW,2013-09-23 08:33:00,
2013-09-23 03:58:00,51.8,45.5,29.89,SE,135,1.3,1.3,79,0.00,,,0.00,WUHU216HW,2013-09-23 08:58:00,
2013-09-23 04:03:00,51.8,45.5,29.89,SE,135,1.3,1.3,79,0.00,,,0.00,WUHU216HW,2013-09-23 09:03:00,
2013-09-23 04:28:00,51.5,45.5,29.89,East,90,1.3,1.3,80,0.00,,,0.00,WUHU216HW,2013-09-23 09:28:00,
2013-09-23 04:33:00,51.5,45.5,29.89,East,90,1.3,1.3,80,0.00,,,0.00,WUHU216HW,2013-09-23 09:33:00,
2013-09-23 04:58:00,51.1,45.2,29.89,SSW,203,3.4,3.4,80,0.00,,,0.00,WUHU216HW,2013-09-23 09:58:00,
2013-09-23 05:03:00,51.1,45.2,29.89,SSW,203,3.4,3.4,80,0.00,,,0.00,WUHU216HW,2013-09-23 10:03:00,
2013-09-23 05:28:00,50.8,44.8,29.89,ESE,113,2.2,2.2,80,0.00,,,0.00,WUHU216HW,2013-09-23 10:28:00,
2013-09-23 05:33:00,50.8,44.8,29.89,ESE,113,2.2,2.2,80,0.00,,,0.00,WUHU216HW,2013-09-23 10:33:00,
2013-09-23 05:58:00,50.4,44.5,29.89,ESE,113,2.2,2.2,80,0.00,,,0.00,WUHU216HW,2013-09-23 10:58:00,
2013-09-23 06:03:00,50.4,44.5,29.89,ESE,113,2.2,2.2,80,0.00,,,0.00,WUHU216HW,2013-09-23 11:03:00,
2013-09-23 06:28:00,50.0,44.1,29.90,ESE,113,1.8,1.8,80,0.00,,,0.00,WUHU216HW,2013-09-23 11:28:00,
2013-09-23 06:33:00,50.0,44.1,29.90,ESE,113,1.8,1.8,80,0.00,,,0.00,WUHU216HW,2013-09-23 11:33:00,
2013-09-23 06:58:00,49.9,44.2,29.90,ESE,113,1.8,1.8,81,0.00,,,0.00,WUHU216HW,2013-09-23 11:58:00,
2013-09-23 07:03:00,49.9,44.2,29.90,ESE,113,1.8,1.8,81,0.00,,,0.00,WUHU216HW,2013-09-23 12:03:00,
2013-09-23 07:28:00,49.9,44.2,29.91,SSE,158,3.1,3.1,81,0.00,,,0.00,WUHU216HW,2013-09-23 12:28:00,
2013-09-23 07:33:00,49.9,44.2,29.91,SSE,158,3.1,3.1,81,0.00,,,0.00,WUHU216HW,2013-09-23 12:33:00,
2013-09-23 07:58:00,51.1,45.2,29.91,ESE,113,3.1,3.1,80,0.00,,,0.00,WUHU216HW,2013-09-23 12:58:00,
2013-09-23 08:03:00,51.1,45.2,29.91,ESE,113,3.1,3.1,80,0.00,,,0.00,WUHU216HW,2013-09-23 13:03:00,
2013-09-23 08:28:00,52.7,46.1,29.92,ESE,113,2.5,2.5,78,0.00,,,0.00,WUHU216HW,2013-09-23 13:28:00,
2013-09-23 08:33:00,52.7,46.1,29.92,ESE,113,2.5,2.5,78,0.00,,,0.00,WUHU216HW,2013-09-23 13:33:00,
2013-09-23 08:58:00,54.0,46.6,29.92,SE,135,1.8,1.8,76,0.00,,,0.00,WUHU216HW,2013-09-23 13:58:00,
2013-09-23 09:03:00,54.0,46.6,29.92,SE,135,1.8,1.8,76,0.00,,,0.00,WUHU216HW,2013-09-23 14:03:00,
2013-09-23 09:28:00,55.6,47.8,29.93,NW,315,0.4,0.4,75,0.00,,,0.00,WUHU216HW,2013-09-23 14:28:00,
2013-09-23 09:33:00,55.6,47.8,29.93,NW,315,0.4,0.4,75,0.00,,,0.00,WUHU216HW,2013-09-23 14:33:00,
2013-09-23 09:58:00,58.0,49.3,29.94,East,90,3.4,3.4,73,0.00,,,0.00,WUHU216HW,2013-09-23 14:58:00,
2013-09-23 10:03:00,58.0,49.3,29.94,East,90,3.4,3.4,73,0.00,,,0.00,WUHU216HW,2013-09-23 15:03:00,
2013-09-23 10:28:00,61.0,51.3,29.93,WSW,248,5.1,5.1,70,0.00,,,0.00,WUHU216HW,2013-09-23 15:28:00,
2013-09-23 10:33:00,61.0,51.3,29.93,WSW,248,5.1,5.1,70,0.00,,,0.00,WUHU216HW,2013-09-23 15:33:00,
2013-09-23 10:58:00,64.1,52.5,29.92,NE,45,0.4,0.4,66,0.00,,,0.00,WUHU216HW,2013-09-23 15:58:00,
2013-09-23 11:03:00,64.1,52.5,29.92,NE,45,0.4,0.4,66,0.00,,,0.00,WUHU216HW,2013-09-23 16:03:00,
2013-09-23 11:28:00,67.1,53.3,29.92,SSW,203,3.8,3.8,61,0.00,,,0.00,WUHU216HW,2013-09-23 16:28:00,
2013-09-23 11:33:00,67.1,53.3,29.92,SSW,203,3.8,3.8,61,0.00,,,0.00,WUHU216HW,2013-09-23 16:33:00,
2013-09-23 11:58:00,70.0,53.6,29.92,WSW,248,1.8,1.8,56,0.00,,,0.00,WUHU216HW,2013-09-23 16:58:00,
2013-09-23 12:03:00,70.0,53.6,29.92,WSW,248,1.8,1.8,56,0.00,,,0.00,WUHU216HW,2013-09-23 17:03:00,
2013-09-23 12:28:00,72.5,54.8,29.91,SE,135,2.2,2.2,54,0.00,,,0.00,WUHU216HW,2013-09-23 17:28:00,
2013-09-23 12:33:00,72.5,54.8,29.91,SE,135,2.2,2.2,54,0.00,,,0.00,WUHU216HW,2013-09-23 17:33:00,
2013-09-23 12:58:00,74.7,55.5,29.89,SSE,158,2.2,2.2,51,0.00,,,0.00,WUHU216HW,2013-09-23 17:58:00,
2013-09-23 13:03:00,74.7,55.5,29.89,SSE,158,2.2,2.2,51,0.00,,,0.00,WUHU216HW,2013-09-23 18:03:00,
2013-09-23 13:28:00,76.5,55.4,29.89,ESE,113,3.1,3.1,48,0.00,,,0.00,WUHU216HW,2013-09-23 18:28:00,
2013-09-23 13:33:00,76.5,55.4,29.89,ESE,113,3.1,3.1,48,0.00,,,0.00,WUHU216HW,2013-09-23 18:33:00,
2013-09-23 13:58:00,80.8,57.4,29.87,SE,135,0.9,0.9,45,0.00,,,0.00,WUHU216HW,2013-09-23 18:58:00,
2013-09-23 14:03:00,80.8,57.4,29.87,SE,135,0.9,0.9,45,0.00,,,0.00,WUHU216HW,2013-09-23 19:03:00,
2013-09-23 14:28:00,83.7,56.2,29.86,South,180,4.7,4.7,39,0.00,,,0.00,WUHU216HW,2013-09-23 19:28:00,
2013-09-23 14:33:00,83.7,56.2,29.86,South,180,4.7,4.7,39,0.00,,,0.00,WUHU216HW,2013-09-23 19:33:00,
2013-09-23 14:58:00,83.5,54.4,29.85,North,0,1.1,1.1,37,0.00,,,0.00,WUHU216HW,2013-09-23 19:58:00,
2013-09-23 15:03:00,83.5,54.4,29.85,North,0,1.1,1.1,37,0.00,,,0.00,WUHU216HW,2013-09-23 20:03:00,
2013-09-23 15:28:00,76.9,51.4,29.84,East,90,1.8,1.8,41,0.00,,,0.00,WUHU216HW,2013-09-23 20:28:00,
2013-09-23 15:33:00,76.9,51.4,29.84,East,90,1.8,1.8,41,0.00,,,0.00,WUHU216HW,2013-09-23 20:33:00,
2013-09-23 15:58:00,74.2,51.4,29.84,SW,225,5.1,5.1,45,0.00,,,0.00,WUHU216HW,2013-09-23 20:58:00,
2013-09-23 16:03:00,74.2,51.4,29.84,SW,225,5.1,5.1,45,0.00,,,0.00,WUHU216HW,2013-09-23 21:03:00,
2013-09-23 16:28:00,73.4,50.7,29.84,East,90,1.8,1.8,45,0.00,,,0.00,WUHU216HW,2013-09-23 21:28:00,
2013-09-23 16:33:00,73.4,50.7,29.84,East,90,1.8,1.8,45,0.00,,,0.00,WUHU216HW,2013-09-23 21:33:00,
2013-09-23 16:58:00,72.5,50.5,29.83,West,270,0.4,0.4,46,0.00,,,0.00,WUHU216HW,2013-09-23 21:58:00,
2013-09-23 17:03:00,72.5,50.5,29.83,West,270,0.4,0.4,46,0.00,,,0.00,WUHU216HW,2013-09-23 22:03:00,
2013-09-23 17:28:00,71.8,49.8,29.83,East,90,3.6,3.6,46,0.00,,,0.00,WUHU216HW,2013-09-23 22:28:00,
2013-09-23 17:33:00,71.8,49.8,29.83,East,90,3.6,3.6,46,0.00,,,0.00,WUHU216HW,2013-09-23 22:33:00,
2013-09-23 17:58:00,70.9,50.2,29.83,East,90,2.5,2.5,48,0.00,,,0.00,WUHU216HW,2013-09-23 22:58:00,
2013-09-23 18:03:00,70.9,50.2,29.83,East,90,2.5,2.5,48,0.00,,,0.00,WUHU216HW,2013-09-23 23:03:00,
2013-09-23 18:28:00,70.2,50.8,29.83,ESE,113,0.2,0.2,50,0.00,,,0.00,WUHU216HW,2013-09-23 23:28:00,
2013-09-23 18:33:00,70.2,50.8,29.83,ESE,113,0.2,0.2,50,0.00,,,0.00,WUHU216HW,2013-09-23 23:33:00,
2013-09-23 18:58:00,68.4,50.0,29.82,ESE,113,0.7,0.7,52,0.00,,,0.00,WUHU216HW,2013-09-23 23:58:00,
2013-09-23 19:03:00,68.4,50.0,29.82,ESE,113,0.7,0.7,52,0.00,,,0.00,WUHU216HW,2013-09-24 00:03:00,
2013-09-23 19:28:00,66.8,49.6,29.82,ESE,113,0.7,0.7,54,0.00,,,0.00,WUHU216HW,2013-09-24 00:28:00,
2013-09-23 19:33:00,66.8,49.6,29.82,ESE,113,0.7,0.7,54,0.00,,,0.00,WUHU216HW,2013-09-24 00:33:00,
2013-09-23 19:58:00,65.3,49.1,29.82,ESE,113,1.8,1.8,56,0.00,,,0.00,WUHU216HW,2013-09-24 00:58:00,
2013-09-23 20:03:00,65.3,49.1,29.82,ESE,113,1.8,1.8,56,0.00,,,0.00,WUHU216HW,2013-09-24 01:03:00,
2013-09-23 20:28:00,64.4,49.2,29.82,NW,315,0.7,0.7,58,0.00,,,0.00,WUHU216HW,2013-09-24 01:28:00,
2013-09-23 20:33:00,64.4,49.2,29.82,NW,315,0.7,0.7,58,0.00,,,0.00,WUHU216HW,2013-09-24 01:33:00,
2013-09-23 20:58:00,63.7,49.6,29.83,North,0,1.1,1.1,60,0.00,,,0.00,WUHU216HW,2013-09-24 01:58:00,
2013-09-23 21:03:00,63.7,49.6,29.83,North,0,1.1,1.1,60,0.00,,,0.00,WUHU216HW,2013-09-24 02:03:00,
2013-09-23 21:28:00,63.0,49.0,29.83,ESE,113,3.4,3.4,60,0.00,,,0.00,WUHU216HW,2013-09-24 02:28:00,
2013-09-23 21:33:00,63.0,49.0,29.83,ESE,113,3.4,3.4,60,0.00,,,0.00,WUHU216HW,2013-09-24 02:33:00,
2013-09-23 21:58:00,62.3,49.2,29.83,South,180,2.0,2.0,62,0.00,,,0.00,WUHU216HW,2013-09-24 02:58:00,
2013-09-23 22:03:00,62.3,49.2,29.83,South,180,2.0,2.0,62,0.00,,,0.00,WUHU216HW,2013-09-24 03:03:00,
2013-09-23 22:28:00,61.2,48.5,29.84,SW,225,1.3,1.3,63,0.00,,,0.00,WUHU216HW,2013-09-24 03:28:00,
2013-09-23 22:34:00,61.2,48.5,29.84,SW,225,1.3,1.3,63,0.00,,,0.00,WUHU216HW,2013-09-24 03:34:00,
2013-09-23 22:58:00,60.3,48.5,29.84,ESE,113,1.8,1.8,65,0.00,,,0.00,WUHU216HW,2013-09-24 03:58:00,
2013-09-23 23:01:00,60.3,48.5,29.84,ESE,113,1.8,1.8,65,0.00,,,0.00,WUHU216HW,2013-09-24 04:01:00,
2013-09-23 23:06:00,60.3,48.5,29.84,ESE,113,1.8,1.8,65,0.00,,,0.00,WUHU216HW,2013-09-24 04:06:00,
2013-09-23 23:28:00,59.4,47.6,29.84,ESE,113,1.8,1.8,65,0.00,,,0.00,WUHU216HW,2013-09-24 04:28:00,
2013-09-23 23:33:00,59.4,47.6,29.84,ESE,113,1.8,1.8,65,0.00,,,0.00,WUHU216HW,2013-09-24 04:33:00,
2013-09-23 23:58:00,58.7,47.4,29.84,ESE,113,1.8,1.8,66,0.00,,,0.00,WUHU216HW,2013-09-24 04:58:00,